sensor_id;sensor_type;location;lat;lon;timestamp;pressure;altitude;pressure_sealevel;temperature;humidity
54308;BME280;40208;39.778;2.710;2023-09-08T00:01:45;101524.47;;;22.51;100.00
54308;BME280;40208;39.778;2.710;2023-09-08T00:04:30;101535.13;;;22.63;100.00
54308;BME280;40208;39.778;2.710;2023-09-08T00:07:15;101434.63;;;22.03;100.00
54308;BME280;40208;39.778;2.710;2023-09-08T00:10:00;101548.75;;;22.73;100.00
54308;BME280;40208;39.778;2.710;2023-09-08T00:12:45;101540.03;;;22.70;100.00
54308;BME280;40208;39.778;2.710;2023-09-08T00:15:30;101424.19;;;21.99;100.00
54308;BME280;40208;39.778;2.710;2023-09-08T00:18:14;101538.16;;;22.70;100.00
54308;BME280;40208;39.778;2.710;2023-09-08T00:20:59;101464.56;;;22.23;100.00
54308;BME280;40208;39.778;2.710;2023-09-08T00:23:44;101394.41;;;21.78;100.00
54308;BME280;40208;39.778;2.710;2023-09-08T00:26:29;101470.34;;;22.18;100.00
54308;BME280;40208;39.778;2.710;2023-09-08T00:29:14;101548.34;;;22.57;100.00
54308;BME280;40208;39.778;2.710;2023-09-08T00:31:59;101553.00;;;22.55;100.00
54308;BME280;40208;39.778;2.710;2023-09-08T00:34:44;101485.63;;;22.08;100.00
54308;BME280;40208;39.778;2.710;2023-09-08T00:37:29;101399.13;;;21.53;100.00
54308;BME280;40208;39.778;2.710;2023-09-08T00:40:14;101540.38;;;22.33;100.00
54308;BME280;40208;39.778;2.710;2023-09-08T00:42:59;101341.72;;;21.17;100.00
54308;BME280;40208;39.778;2.710;2023-09-08T00:45:45;101438.53;;;21.78;100.00
54308;BME280;40208;39.778;2.710;2023-09-08T00:48:30;101545.41;;;22.37;100.00
54308;BME280;40208;39.778;2.710;2023-09-08T00:51:15;101498.88;;;22.11;100.00
54308;BME280;40208;39.778;2.710;2023-09-08T00:53:59;101532.81;;;22.27;100.00
54308;BME280;40208;39.778;2.710;2023-09-08T00:56:45;101537.94;;;22.30;100.00
54308;BME280;40208;39.778;2.710;2023-09-08T00:59:35;101535.97;;;22.32;100.00
54308;BME280;40208;39.778;2.710;2023-09-08T01:02:20;101516.97;;;22.22;100.00
54308;BME280;40208;39.778;2.710;2023-09-08T01:05:06;101529.84;;;22.30;100.00
54308;BME280;40208;39.778;2.710;2023-09-08T01:07:52;101524.44;;;22.30;100.00
54308;BME280;40208;39.778;2.710;2023-09-08T01:10:37;101519.75;;;22.32;100.00
54308;BME280;40208;39.778;2.710;2023-09-08T01:13:22;101527.88;;;22.32;100.00
54308;BME280;40208;39.778;2.710;2023-09-08T01:16:07;101325.78;;;21.03;100.00
54308;BME280;40208;39.778;2.710;2023-09-08T01:18:52;101375.06;;;21.39;100.00
54308;BME280;40208;39.778;2.710;2023-09-08T01:27:55;101515.09;;;22.22;100.00
54308;BME280;40208;39.778;2.710;2023-09-08T01:30:42;101444.53;;;21.71;100.00
54308;BME280;40208;39.778;2.710;2023-09-08T01:33:28;101518.16;;;22.18;100.00
54308;BME280;40208;39.778;2.710;2023-09-08T01:36:13;101432.78;;;21.60;100.00
54308;BME280;40208;39.778;2.710;2023-09-08T01:38:59;101522.81;;;22.16;100.00
54308;BME280;40208;39.778;2.710;2023-09-08T01:41:43;101455.97;;;21.74;100.00
54308;BME280;40208;39.778;2.710;2023-09-08T01:44:28;101514.88;;;22.03;100.00
54308;BME280;40208;39.778;2.710;2023-09-08T01:47:13;101442.09;;;21.56;100.00
54308;BME280;40208;39.778;2.710;2023-09-08T01:49:58;101489.34;;;21.85;100.00
54308;BME280;40208;39.778;2.710;2023-09-08T01:52:43;101495.59;;;21.85;100.00
54308;BME280;40208;39.778;2.710;2023-09-08T01:55:27;101526.69;;;22.02;100.00
54308;BME280;40208;39.778;2.710;2023-09-08T01:58:12;101517.94;;;21.98;100.00
54308;BME280;40208;39.778;2.710;2023-09-08T02:00:57;101494.53;;;21.76;100.00
54308;BME280;40208;39.778;2.710;2023-09-08T02:03:45;101356.81;;;20.86;100.00
54308;BME280;40208;39.778;2.710;2023-09-08T02:06:30;101457.59;;;21.43;100.00
54308;BME280;40208;39.778;2.710;2023-09-08T02:09:15;101532.97;;;21.91;100.00
54308;BME280;40208;39.778;2.710;2023-09-08T02:12:00;101539.34;;;21.90;100.00
54308;BME280;40208;39.778;2.710;2023-09-08T02:14:45;101521.03;;;21.83;100.00
54308;BME280;40208;39.778;2.710;2023-09-08T02:17:30;101514.66;;;21.72;100.00
54308;BME280;40208;39.778;2.710;2023-09-08T02:20:15;101465.06;;;21.51;100.00
54308;BME280;40208;39.778;2.710;2023-09-08T02:23:05;101383.56;;;21.01;100.00
54308;BME280;40208;39.778;2.710;2023-09-08T02:25:50;101520.06;;;21.84;100.00
54308;BME280;40208;39.778;2.710;2023-09-08T02:28:34;101416.31;;;21.18;100.00
54308;BME280;40208;39.778;2.710;2023-09-08T02:31:19;101373.38;;;20.93;100.00
54308;BME280;40208;39.778;2.710;2023-09-08T02:34:04;101510.97;;;21.73;100.00
54308;BME280;40208;39.778;2.710;2023-09-08T02:36:49;101522.78;;;21.84;100.00
54308;BME280;40208;39.778;2.710;2023-09-08T02:39:35;101521.78;;;21.85;100.00
54308;BME280;40208;39.778;2.710;2023-09-08T02:42:20;101538.84;;;21.85;100.00
54308;BME280;40208;39.778;2.710;2023-09-08T02:45:05;101530.88;;;21.84;100.00
54308;BME280;40208;39.778;2.710;2023-09-08T02:47:49;101504.84;;;21.71;100.00
54308;BME280;40208;39.778;2.710;2023-09-08T02:50:34;101450.69;;;21.39;100.00
54308;BME280;40208;39.778;2.710;2023-09-08T02:53:19;101479.44;;;21.51;100.00
54308;BME280;40208;39.778;2.710;2023-09-08T02:56:04;101534.31;;;21.74;100.00
54308;BME280;40208;39.778;2.710;2023-09-08T02:58:50;101505.59;;;21.62;100.00
54308;BME280;40208;39.778;2.710;2023-09-08T03:01:35;101484.09;;;21.49;100.00
54308;BME280;40208;39.778;2.710;2023-09-08T03:04:20;101524.00;;;21.68;100.00
54308;BME280;40208;39.778;2.710;2023-09-08T03:07:04;101513.31;;;21.55;100.00
54308;BME280;40208;39.778;2.710;2023-09-08T03:09:49;101530.16;;;21.48;100.00
54308;BME280;40208;39.778;2.710;2023-09-08T03:12:33;101539.34;;;21.56;100.00
54308;BME280;40208;39.778;2.710;2023-09-08T03:15:18;101485.66;;;21.29;100.00
54308;BME280;40208;39.778;2.710;2023-09-08T03:18:04;101443.53;;;21.04;100.00
54308;BME280;40208;39.778;2.710;2023-09-08T03:20:49;101366.56;;;20.53;100.00
54308;BME280;40208;39.778;2.710;2023-09-08T03:23:42;101407.44;;;20.71;100.00
54308;BME280;40208;39.778;2.710;2023-09-08T03:26:27;101378.84;;;20.58;100.00
54308;BME280;40208;39.778;2.710;2023-09-08T03:29:12;101502.72;;;21.30;100.00
54308;BME280;40208;39.778;2.710;2023-09-08T03:31:56;101514.00;;;21.35;100.00
54308;BME280;40208;39.778;2.710;2023-09-08T03:34:41;101560.09;;;21.56;100.00
54308;BME280;40208;39.778;2.710;2023-09-08T03:37:26;101495.13;;;21.24;100.00
54308;BME280;40208;39.778;2.710;2023-09-08T03:40:11;101533.97;;;21.45;100.00
54308;BME280;40208;39.778;2.710;2023-09-08T03:42:56;101543.03;;;21.55;100.00
54308;BME280;40208;39.778;2.710;2023-09-08T03:45:42;101440.34;;;20.99;100.00
54308;BME280;40208;39.778;2.710;2023-09-08T03:48:27;101539.34;;;21.56;100.00
54308;BME280;40208;39.778;2.710;2023-09-08T03:51:12;101495.47;;;21.30;100.00
54308;BME280;40208;39.778;2.710;2023-09-08T03:53:57;101442.19;;;20.99;100.00
54308;BME280;40208;39.778;2.710;2023-09-08T03:56:41;101404.38;;;20.76;100.00
54308;BME280;40208;39.778;2.710;2023-09-08T03:59:26;101494.97;;;21.25;100.00
54308;BME280;40208;39.778;2.710;2023-09-08T04:02:11;101437.28;;;20.92;100.00
54308;BME280;40208;39.778;2.710;2023-09-08T04:04:56;101432.38;;;20.86;100.00
54308;BME280;40208;39.778;2.710;2023-09-08T04:07:41;101492.16;;;21.27;100.00
54308;BME280;40208;39.778;2.710;2023-09-08T04:10:26;101519.41;;;21.35;100.00
54308;BME280;40208;39.778;2.710;2023-09-08T04:13:10;101526.72;;;21.46;100.00
54308;BME280;40208;39.778;2.710;2023-09-08T04:15:55;101471.53;;;21.03;100.00
54308;BME280;40208;39.778;2.710;2023-09-08T04:18:40;101516.22;;;21.30;100.00
54308;BME280;40208;39.778;2.710;2023-09-08T04:21:25;101434.94;;;20.88;100.00
54308;BME280;40208;39.778;2.710;2023-09-08T04:24:10;101252.91;;;19.78;100.00
54308;BME280;40208;39.778;2.710;2023-09-08T04:26:54;101524.59;;;21.38;100.00
54308;BME280;40208;39.778;2.710;2023-09-08T04:29:39;101437.13;;;20.83;100.00
54308;BME280;40208;39.778;2.710;2023-09-08T04:32:25;101436.28;;;20.82;100.00
54308;BME280;40208;39.778;2.710;2023-09-08T04:35:09;101336.56;;;20.23;100.00
54308;BME280;40208;39.778;2.710;2023-09-08T04:37:54;101521.63;;;21.30;100.00
54308;BME280;40208;39.778;2.710;2023-09-08T04:40:45;101527.25;;;21.27;100.00
54308;BME280;40208;39.778;2.710;2023-09-08T04:43:29;101480.22;;;20.95;100.00
54308;BME280;40208;39.778;2.710;2023-09-08T04:46:14;101524.06;;;21.22;100.00
54308;BME280;40208;39.778;2.710;2023-09-08T04:48:59;101513.38;;;21.20;100.00
54308;BME280;40208;39.778;2.710;2023-09-08T04:51:44;101518.03;;;21.18;100.00
54308;BME280;40208;39.778;2.710;2023-09-08T04:54:29;101511.66;;;21.08;100.00
54308;BME280;40208;39.778;2.710;2023-09-08T04:57:14;101393.22;;;20.34;100.00
54308;BME280;40208;39.778;2.710;2023-09-08T04:59:59;101518.91;;;21.18;100.00
54308;BME280;40208;39.778;2.710;2023-09-08T05:02:43;101454.78;;;20.75;100.00
54308;BME280;40208;39.778;2.710;2023-09-08T05:05:29;101395.44;;;20.40;100.00
54308;BME280;40208;39.778;2.710;2023-09-08T05:08:13;101342.75;;;20.01;100.00
54308;BME280;40208;39.778;2.710;2023-09-08T05:10:58;101164.31;;;18.78;100.00
54308;BME280;40208;39.778;2.710;2023-09-08T05:13:43;101461.13;;;20.63;100.00
54308;BME280;40208;39.778;2.710;2023-09-08T05:16:28;101466.22;;;20.55;100.00
54308;BME280;40208;39.778;2.710;2023-09-08T05:19:30;101535.16;;;20.94;100.00
54308;BME280;40208;39.778;2.710;2023-09-08T05:22:15;101406.50;;;20.13;100.00
54308;BME280;40208;39.778;2.710;2023-09-08T05:25:00;101535.00;;;20.85;100.00
54308;BME280;40208;39.778;2.710;2023-09-08T05:27:44;101533.66;;;20.79;100.00
54308;BME280;40208;39.778;2.710;2023-09-08T05:30:30;101529.41;;;20.64;100.00
54308;BME280;40208;39.778;2.710;2023-09-08T05:33:15;101533.75;;;20.78;100.00
54308;BME280;40208;39.778;2.710;2023-09-08T05:36:00;101502.03;;;20.57;100.00
54308;BME280;40208;39.778;2.710;2023-09-08T05:38:45;101469.81;;;20.31;100.00
54308;BME280;40208;39.778;2.710;2023-09-08T05:41:30;101422.72;;;20.00;100.00
54308;BME280;40208;39.778;2.710;2023-09-08T05:44:15;101511.78;;;20.47;100.00
54308;BME280;40208;39.778;2.710;2023-09-08T05:46:59;101418.53;;;19.96;100.00
54308;BME280;40208;39.778;2.710;2023-09-08T05:49:44;101518.41;;;20.54;100.00
54308;BME280;40208;39.778;2.710;2023-09-08T05:52:29;101459.72;;;20.22;100.00
54308;BME280;40208;39.778;2.710;2023-09-08T05:55:14;101410.81;;;19.91;100.00
54308;BME280;40208;39.778;2.710;2023-09-08T05:57:58;101433.16;;;20.05;100.00
54308;BME280;40208;39.778;2.710;2023-09-08T06:00:43;101461.25;;;20.13;100.00
54308;BME280;40208;39.778;2.710;2023-09-08T06:03:28;101547.25;;;20.78;100.00
54308;BME280;40208;39.778;2.710;2023-09-08T06:06:13;101428.16;;;20.11;100.00
54308;BME280;40208;39.778;2.710;2023-09-08T06:08:58;101569.13;;;20.86;100.00
54308;BME280;40208;39.778;2.710;2023-09-08T06:11:43;101528.31;;;20.66;100.00
54308;BME280;40208;39.778;2.710;2023-09-08T06:14:28;101557.59;;;20.84;100.00
54308;BME280;40208;39.778;2.710;2023-09-08T06:17:13;101525.75;;;20.65;100.00
54308;BME280;40208;39.778;2.710;2023-09-08T06:19:58;101561.25;;;20.83;100.00
54308;BME280;40208;39.778;2.710;2023-09-08T06:22:43;101562.09;;;20.83;100.00
54308;BME280;40208;39.778;2.710;2023-09-08T06:25:27;101490.47;;;20.31;100.00
54308;BME280;40208;39.778;2.710;2023-09-08T06:28:15;101533.66;;;20.55;100.00
54308;BME280;40208;39.778;2.710;2023-09-08T06:31:00;101519.13;;;20.45;100.00
54308;BME280;40208;39.778;2.710;2023-09-08T06:33:44;101432.03;;;19.83;100.00
54308;BME280;40208;39.778;2.710;2023-09-08T06:36:29;101600.94;;;20.69;100.00
54308;BME280;40208;39.778;2.710;2023-09-08T06:39:14;101519.47;;;20.40;100.00
54308;BME280;40208;39.778;2.710;2023-09-08T06:41:58;101502.50;;;20.27;100.00
54308;BME280;40208;39.778;2.710;2023-09-08T06:44:43;101577.44;;;20.59;100.00
54308;BME280;40208;39.778;2.710;2023-09-08T06:47:28;101581.88;;;20.60;100.00
54308;BME280;40208;39.778;2.710;2023-09-08T06:50:13;101581.31;;;20.67;100.00
54308;BME280;40208;39.778;2.710;2023-09-08T06:52:58;101590.69;;;20.62;100.00
54308;BME280;40208;39.778;2.710;2023-09-08T06:55:44;101584.19;;;20.64;100.00
54308;BME280;40208;39.778;2.710;2023-09-08T06:58:29;101426.78;;;19.82;100.00
54308;BME280;40208;39.778;2.710;2023-09-08T07:01:14;101486.16;;;20.17;100.00
54308;BME280;40208;39.778;2.710;2023-09-08T07:03:59;101496.97;;;20.28;100.00
54308;BME280;40208;39.778;2.710;2023-09-08T07:06:44;101572.72;;;20.73;100.00
54308;BME280;40208;39.778;2.710;2023-09-08T07:09:31;101501.84;;;20.47;100.00
54308;BME280;40208;39.778;2.710;2023-09-08T07:12:15;101411.06;;;20.00;100.00
54308;BME280;40208;39.778;2.710;2023-09-08T07:15:00;101468.31;;;20.27;100.00
54308;BME280;40208;39.778;2.710;2023-09-08T07:17:45;101581.47;;;21.12;100.00
54308;BME280;40208;39.778;2.710;2023-09-08T07:20:30;101586.16;;;21.22;100.00
54308;BME280;40208;39.778;2.710;2023-09-08T07:23:18;101576.56;;;21.17;100.00
54308;BME280;40208;39.778;2.710;2023-09-08T07:26:03;101579.56;;;21.37;100.00
54308;BME280;40208;39.778;2.710;2023-09-08T07:28:47;101557.47;;;21.32;100.00
54308;BME280;40208;39.778;2.710;2023-09-08T07:31:33;101491.25;;;21.04;100.00
54308;BME280;40208;39.778;2.710;2023-09-08T07:34:18;101294.25;;;20.01;100.00
54308;BME280;40208;39.778;2.710;2023-09-08T07:37:03;101477.66;;;21.16;100.00
54308;BME280;40208;39.778;2.710;2023-09-08T07:39:49;101518.47;;;21.47;100.00
54308;BME280;40208;39.778;2.710;2023-09-08T07:42:34;101590.81;;;21.89;100.00
54308;BME280;40208;39.778;2.710;2023-09-08T07:45:19;101551.13;;;21.78;100.00
54308;BME280;40208;39.778;2.710;2023-09-08T07:48:04;101425.16;;;21.21;100.00
54308;BME280;40208;39.778;2.710;2023-09-08T07:50:48;101569.53;;;22.07;100.00
54308;BME280;40208;39.778;2.710;2023-09-08T07:53:33;101459.03;;;21.47;100.00
54308;BME280;40208;39.778;2.710;2023-09-08T07:56:18;101523.09;;;22.01;100.00
54308;BME280;40208;39.778;2.710;2023-09-08T07:59:03;101492.16;;;21.94;100.00
54308;BME280;40208;39.778;2.710;2023-09-08T08:01:48;101414.75;;;21.50;100.00
54308;BME280;40208;39.778;2.710;2023-09-08T08:04:32;101483.28;;;22.03;100.00
54308;BME280;40208;39.778;2.710;2023-09-08T08:07:17;101402.78;;;21.64;100.00
54308;BME280;40208;39.778;2.710;2023-09-08T08:10:02;101480.56;;;22.15;100.00
54308;BME280;40208;39.778;2.710;2023-09-08T08:12:46;101597.75;;;22.91;100.00
54308;BME280;40208;39.778;2.710;2023-09-08T08:15:36;101538.44;;;22.67;100.00
54308;BME280;40208;39.778;2.710;2023-09-08T08:18:21;101595.38;;;23.09;100.00
54308;BME280;40208;39.778;2.710;2023-09-08T08:21:06;101594.84;;;23.15;100.00
54308;BME280;40208;39.778;2.710;2023-09-08T08:23:51;101557.88;;;23.04;100.00
54308;BME280;40208;39.778;2.710;2023-09-08T08:26:35;101589.03;;;23.20;100.00
54308;BME280;40208;39.778;2.710;2023-09-08T08:29:20;101283.47;;;21.58;100.00
54308;BME280;40208;39.778;2.710;2023-09-08T08:32:05;101593.78;;;23.48;100.00
54308;BME280;40208;39.778;2.710;2023-09-08T08:34:50;101438.44;;;22.65;100.00
54308;BME280;40208;39.778;2.710;2023-09-08T08:37:36;101598.00;;;23.62;100.00
54308;BME280;40208;39.778;2.710;2023-09-08T08:40:20;101422.94;;;22.68;100.00
54308;BME280;40208;39.778;2.710;2023-09-08T08:43:05;101445.59;;;22.88;100.00
54308;BME280;40208;39.778;2.710;2023-09-08T08:45:51;101283.19;;;21.94;100.00
54308;BME280;40208;39.778;2.710;2023-09-08T08:48:37;101411.66;;;22.83;100.00
54308;BME280;40208;39.778;2.710;2023-09-08T08:51:23;101552.81;;;23.73;100.00
54308;BME280;40208;39.778;2.710;2023-09-08T08:54:10;101475.06;;;23.33;100.00
54308;BME280;40208;39.778;2.710;2023-09-08T08:56:56;101602.78;;;24.10;100.00
54308;BME280;40208;39.778;2.710;2023-09-08T08:59:41;101597.13;;;24.13;100.00
54308;BME280;40208;39.778;2.710;2023-09-08T09:02:28;101560.78;;;23.95;100.00
54308;BME280;40208;39.778;2.710;2023-09-08T09:05:13;101601.44;;;24.26;100.00
54308;BME280;40208;39.778;2.710;2023-09-08T09:07:58;101479.19;;;23.67;100.00
54308;BME280;40208;39.778;2.710;2023-09-08T09:10:43;101442.44;;;23.44;100.00
54308;BME280;40208;39.778;2.710;2023-09-08T09:13:28;101513.44;;;23.99;100.00
54308;BME280;40208;39.778;2.710;2023-09-08T09:16:13;101556.03;;;24.28;100.00
54308;BME280;40208;39.778;2.710;2023-09-08T09:18:59;101596.38;;;24.62;100.00
54308;BME280;40208;39.778;2.710;2023-09-08T09:21:48;101576.97;;;24.57;100.00
54308;BME280;40208;39.778;2.710;2023-09-08T09:24:40;101560.25;;;24.51;100.00
54308;BME280;40208;39.778;2.710;2023-09-08T09:27:30;101502.47;;;24.20;100.00
54308;BME280;40208;39.778;2.710;2023-09-08T09:30:15;101563.81;;;24.62;100.00
54308;BME280;40208;39.778;2.710;2023-09-08T09:33:04;101460.06;;;24.09;100.00
54308;BME280;40208;39.778;2.710;2023-09-08T09:35:51;101608.13;;;25.01;100.00
54308;BME280;40208;39.778;2.710;2023-09-08T09:38:36;101607.13;;;25.02;100.00
54308;BME280;40208;39.778;2.710;2023-09-08T09:41:22;101598.69;;;25.05;100.00
54308;BME280;40208;39.778;2.710;2023-09-08T09:44:07;101603.69;;;25.10;100.00
54308;BME280;40208;39.778;2.710;2023-09-08T09:46:53;101590.53;;;25.05;100.00
54308;BME280;40208;39.778;2.710;2023-09-08T09:49:46;101613.72;;;25.19;100.00
54308;BME280;40208;39.778;2.710;2023-09-08T09:52:31;101442.53;;;24.23;100.00
54308;BME280;40208;39.778;2.710;2023-09-08T09:55:16;101612.44;;;25.23;100.00
54308;BME280;40208;39.778;2.710;2023-09-08T09:58:02;101603.28;;;25.24;100.00
54308;BME280;40208;39.778;2.710;2023-09-08T10:00:50;101590.13;;;25.20;100.00
54308;BME280;40208;39.778;2.710;2023-09-08T10:03:36;101458.06;;;24.31;100.00
54308;BME280;40208;39.778;2.710;2023-09-08T10:06:21;101575.81;;;25.17;100.00
54308;BME280;40208;39.778;2.710;2023-09-08T10:09:06;101544.94;;;24.99;100.00
54308;BME280;40208;39.778;2.710;2023-09-08T10:12:03;101496.25;;;24.78;100.00
54308;BME280;40208;39.778;2.710;2023-09-08T10:14:51;101608.25;;;25.38;100.00
54308;BME280;40208;39.778;2.710;2023-09-08T10:17:40;101461.94;;;24.67;100.00
54308;BME280;40208;39.778;2.710;2023-09-08T10:20:27;101435.84;;;24.47;100.00
54308;BME280;40208;39.778;2.710;2023-09-08T10:26:06;101619.97;;;25.58;100.00
54308;BME280;40208;39.778;2.710;2023-09-08T10:28:54;101613.06;;;25.64;100.00
54308;BME280;40208;39.778;2.710;2023-09-08T10:31:43;101480.06;;;24.86;100.00
54308;BME280;40208;39.778;2.710;2023-09-08T10:34:30;101485.78;;;24.93;100.00
54308;BME280;40208;39.778;2.710;2023-09-08T10:37:23;101605.94;;;25.63;100.00
54308;BME280;40208;39.778;2.710;2023-09-08T10:40:23;101340.44;;;24.03;100.00
54308;BME280;40208;39.778;2.710;2023-09-08T10:43:09;101606.34;;;25.68;100.00
54308;BME280;40208;39.778;2.710;2023-09-08T10:45:54;101603.78;;;25.57;100.00
54308;BME280;40208;39.778;2.710;2023-09-08T10:48:44;101545.47;;;25.42;100.00
54308;BME280;40208;39.778;2.710;2023-09-08T10:51:29;101611.88;;;25.86;100.00
54308;BME280;40208;39.778;2.710;2023-09-08T10:54:40;101609.16;;;25.86;100.00
54308;BME280;40208;39.778;2.710;2023-09-08T10:57:25;101540.13;;;25.50;100.00
54308;BME280;40208;39.778;2.710;2023-09-08T11:00:10;101531.44;;;25.46;100.00
54308;BME280;40208;39.778;2.710;2023-09-08T11:02:58;101551.78;;;25.70;100.00
54308;BME280;40208;39.778;2.710;2023-09-08T11:05:45;101551.06;;;25.77;100.00
54308;BME280;40208;39.778;2.710;2023-09-08T11:08:30;101568.06;;;25.89;100.00
54308;BME280;40208;39.778;2.710;2023-09-08T11:11:16;101609.09;;;26.06;100.00
54308;BME280;40208;39.778;2.710;2023-09-08T11:14:01;101474.53;;;25.35;100.00
54308;BME280;40208;39.778;2.710;2023-09-08T11:16:46;101598.16;;;26.15;100.00
54308;BME280;40208;39.778;2.710;2023-09-08T11:19:49;101456.19;;;25.47;100.00
54308;BME280;40208;39.778;2.710;2023-09-08T11:22:33;101591.63;;;26.26;100.00
54308;BME280;40208;39.778;2.710;2023-09-08T11:25:20;101493.25;;;25.75;100.00
54308;BME280;40208;39.778;2.710;2023-09-08T11:28:05;101545.50;;;26.07;100.00
54308;BME280;40208;39.778;2.710;2023-09-08T11:30:50;101442.34;;;25.40;100.00
54308;BME280;40208;39.778;2.710;2023-09-08T11:33:35;101578.03;;;26.26;100.00
54308;BME280;40208;39.778;2.710;2023-09-08T11:36:26;101477.38;;;25.71;100.00
54308;BME280;40208;39.778;2.710;2023-09-08T11:39:10;101493.78;;;25.79;100.00
54308;BME280;40208;39.778;2.710;2023-09-08T11:41:55;101563.56;;;26.26;100.00
54308;BME280;40208;39.778;2.710;2023-09-08T11:44:41;101567.97;;;26.36;100.00
54308;BME280;40208;39.778;2.710;2023-09-08T11:47:26;101522.34;;;26.20;100.00
54308;BME280;40208;39.778;2.710;2023-09-08T11:50:11;101565.31;;;26.44;100.00
54308;BME280;40208;39.778;2.710;2023-09-08T11:52:59;101412.06;;;25.53;100.00
54308;BME280;40208;39.778;2.710;2023-09-08T11:55:45;101555.84;;;26.49;100.00
54308;BME280;40208;39.778;2.710;2023-09-08T11:58:29;101521.06;;;26.25;100.00
54308;BME280;40208;39.778;2.710;2023-09-08T12:01:15;101421.75;;;25.65;100.00
54308;BME280;40208;39.778;2.710;2023-09-08T12:04:01;101564.00;;;26.49;100.00
54308;BME280;40208;39.778;2.710;2023-09-08T12:06:51;101522.28;;;26.30;100.00
54308;BME280;40208;39.778;2.710;2023-09-08T12:09:36;101511.25;;;26.32;100.00
54308;BME280;40208;39.778;2.710;2023-09-08T12:12:21;101494.13;;;26.21;100.00
54308;BME280;40208;39.778;2.710;2023-09-08T12:15:06;101539.91;;;26.54;100.00
54308;BME280;40208;39.778;2.710;2023-09-08T12:17:50;101551.03;;;26.60;100.00
54308;BME280;40208;39.778;2.710;2023-09-08T12:20:36;101564.41;;;26.72;100.00
54308;BME280;40208;39.778;2.710;2023-09-08T12:23:22;101564.25;;;26.73;100.00
54308;BME280;40208;39.778;2.710;2023-09-08T12:26:07;101494.28;;;26.38;100.00
54308;BME280;40208;39.778;2.710;2023-09-08T12:28:52;101450.13;;;26.08;100.00
54308;BME280;40208;39.778;2.710;2023-09-08T12:31:36;101528.25;;;26.61;100.00
54308;BME280;40208;39.778;2.710;2023-09-08T12:34:21;101523.69;;;26.52;100.00
54308;BME280;40208;39.778;2.710;2023-09-08T12:37:06;101551.09;;;26.69;100.00
54308;BME280;40208;39.778;2.710;2023-09-08T12:39:51;101550.19;;;26.78;100.00
54308;BME280;40208;39.778;2.710;2023-09-08T12:42:36;101527.91;;;26.64;100.00
54308;BME280;40208;39.778;2.710;2023-09-08T12:45:21;101538.66;;;26.84;100.00
54308;BME280;40208;39.778;2.710;2023-09-08T12:48:07;101512.97;;;26.69;100.00
54308;BME280;40208;39.778;2.710;2023-09-08T12:50:52;101528.38;;;26.78;100.00
54308;BME280;40208;39.778;2.710;2023-09-08T12:53:36;101432.25;;;26.23;100.00
54308;BME280;40208;39.778;2.710;2023-09-08T12:56:21;101531.16;;;26.86;100.00
54308;BME280;40208;39.778;2.710;2023-09-08T12:59:06;101539.28;;;26.96;100.00
54308;BME280;40208;39.778;2.710;2023-09-08T13:01:51;101535.16;;;26.92;100.00
54308;BME280;40208;39.778;2.710;2023-09-08T13:04:35;101397.34;;;26.19;100.00
54308;BME280;40208;39.778;2.710;2023-09-08T13:07:20;101549.53;;;27.02;100.00
54308;BME280;40208;39.778;2.710;2023-09-08T13:10:06;101379.31;;;26.18;100.00
54308;BME280;40208;39.778;2.710;2023-09-08T13:12:51;101524.19;;;27.10;100.00
54308;BME280;40208;39.778;2.710;2023-09-08T13:15:36;101461.91;;;26.62;100.00
54308;BME280;40208;39.778;2.710;2023-09-08T13:18:21;101446.69;;;26.60;100.00
54308;BME280;40208;39.778;2.710;2023-09-08T13:21:06;101418.63;;;26.41;100.00
54308;BME280;40208;39.778;2.710;2023-09-08T13:23:50;101447.09;;;26.65;100.00
54308;BME280;40208;39.778;2.710;2023-09-08T13:26:35;101373.69;;;26.19;100.00
54308;BME280;40208;39.778;2.710;2023-09-08T13:29:20;101517.75;;;27.11;100.00
54308;BME280;40208;39.778;2.710;2023-09-08T13:32:05;101467.75;;;26.76;100.00
54308;BME280;40208;39.778;2.710;2023-09-08T13:34:50;101508.50;;;27.03;100.00
54308;BME280;40208;39.778;2.710;2023-09-08T13:37:35;101488.59;;;26.85;100.00
54308;BME280;40208;39.778;2.710;2023-09-08T13:40:22;101448.56;;;26.59;100.00
54308;BME280;40208;39.778;2.710;2023-09-08T13:43:07;101451.00;;;26.62;100.00
54308;BME280;40208;39.778;2.710;2023-09-08T13:45:52;101472.22;;;26.77;100.00
54308;BME280;40208;39.778;2.710;2023-09-08T13:48:37;101520.09;;;27.05;100.00
54308;BME280;40208;39.778;2.710;2023-09-08T13:51:22;101514.19;;;27.10;100.00
54308;BME280;40208;39.778;2.710;2023-09-08T13:54:07;101520.09;;;27.05;100.00
54308;BME280;40208;39.778;2.710;2023-09-08T13:57:02;101495.09;;;26.84;100.00
54308;BME280;40208;39.778;2.710;2023-09-08T13:59:47;101437.41;;;26.53;100.00
54308;BME280;40208;39.778;2.710;2023-09-08T14:02:32;101403.84;;;26.44;100.00
54308;BME280;40208;39.778;2.710;2023-09-08T14:05:17;101502.03;;;27.04;100.00
54308;BME280;40208;39.778;2.710;2023-09-08T14:08:02;101495.41;;;27.07;100.00
54308;BME280;40208;39.778;2.710;2023-09-08T14:10:47;101426.53;;;26.71;100.00
54308;BME280;40208;39.778;2.710;2023-09-08T14:13:32;101256.31;;;25.70;100.00
54308;BME280;40208;39.778;2.710;2023-09-08T14:16:18;101487.59;;;27.12;100.00
54308;BME280;40208;39.778;2.710;2023-09-08T14:19:03;101490.16;;;27.14;100.00
54308;BME280;40208;39.778;2.710;2023-09-08T14:21:47;101484.56;;;27.15;100.00
54308;BME280;40208;39.778;2.710;2023-09-08T14:24:32;101493.25;;;27.19;100.00